Time;durP1;ratioP1;P1;durP2;ratioP2;P2;SDS_P1;SDS_P2;PMS_P1;PMS_P2;Temp;Humidity;BMP_temperature;BMP_pressure;BME280_temperature;BME280_humidity;BME280_pressure;Samples;Min_cycle;Max_cycle;Signal;HPM_P1;HPM_P2
2022/04/27 00:00:04;;;;;;;21.70;10.53;;;;;;;;;;5052186;28;20693;-59
2022/04/27 00:02:33;;;;;;;21.67;11.60;;;;;;;;;;5051575;28;20704;-59
2022/04/27 00:04:59;;;;;;;24.47;10.67;;;;;;;;;;5054032;28;20311;-60
2022/04/27 00:07:26;;;;;;;24.43;11.43;;;;;;;;;;5051986;28;20567;-59
2022/04/27 00:09:52;;;;;;;22.97;11.17;;;;;;;;;;5051470;28;20296;-59
2022/04/27 00:12:20;;;;;;;31.47;12.17;;;;;;;;;;5050750;28;20291;-59
2022/04/27 00:14:47;;;;;;;21.73;11.03;;;;;;;;;;5051799;28;20322;-59
2022/04/27 00:17:13;;;;;;;25.60;12.10;;;;;;;;;;5050236;28;20298;-59
2022/04/27 00:19:39;;;;;;;25.53;11.57;;;;;;;;;;5051702;28;20295;-59
2022/04/27 00:22:05;;;;;;;26.47;11.40;;;;;;;;;;5051632;28;20737;-59
2022/04/27 00:24:31;;;;;;;24.40;11.70;;;;;;;;;;5066962;28;20863;-59
2022/04/27 00:26:57;;;;;;;23.00;12.10;;;;;;;;;;5071479;28;20284;-59
2022/04/27 00:29:23;;;;;;;22.57;11.97;;;;;;;;;;5071124;28;20298;-59
2022/04/27 00:31:49;;;;;;;25.13;12.07;;;;;;;;;;5071518;28;20291;-59
2022/04/27 00:34:15;;;;;;;22.50;12.13;;;;;;;;;;5071204;28;20656;-59
2022/04/27 00:36:41;;;;;;;27.03;13.13;;;;;;;;;;5070465;28;20302;-59
2022/04/27 00:39:07;;;;;;;21.53;12.43;;;;;;;;;;5070260;28;20290;-59
2022/04/27 00:41:33;;;;;;;26.73;12.20;;;;;;;;;;5069829;28;20291;-59
2022/04/27 00:43:59;;;;;;;23.20;12.27;;;;;;;;;;5071139;28;20286;-59
2022/04/27 00:46:25;;;;;;;24.33;12.23;;;;;;;;;;5070873;28;20310;-59
2022/04/27 00:48:52;;;;;;;26.70;14.20;;;;;;;;;;5071074;28;20283;-59
2022/04/27 00:51:19;;;;;;;30.97;13.30;;;;;;;;;;5070014;28;20780;-59
2022/04/27 00:53:46;;;;;;;20.20;11.50;;;;;;;;;;5071071;28;20274;-60
2022/04/27 00:56:12;;;;;;;28.70;11.50;;;;;;;;;;5071026;28;20796;-60
2022/04/27 00:58:38;;;;;;;29.20;13.70;;;;;;;;;;5070196;28;20287;-59
2022/04/27 01:01:04;;;;;;;30.47;13.43;;;;;;;;;;5070561;28;20374;-59
2022/04/27 01:03:33;;;;;;;23.27;12.53;;;;;;;;;;5070648;28;20298;-60
2022/04/27 01:06:00;;;;;;;23.80;12.60;;;;;;;;;;5061874;28;20809;-59
2022/04/27 01:08:26;;;;;;;26.50;14.03;;;;;;;;;;5050763;28;20288;-60
2022/04/27 01:10:52;;;;;;;28.70;13.23;;;;;;;;;;5050370;28;20284;-60
2022/04/27 01:13:18;;;;;;;30.50;14.37;;;;;;;;;;5049596;28;20302;-59
2022/04/27 01:15:45;;;;;;;30.60;13.40;;;;;;;;;;5050675;28;20311;-59
2022/04/27 01:18:11;;;;;;;29.33;13.23;;;;;;;;;;5050621;28;20310;-60
2022/04/27 01:20:38;;;;;;;29.30;14.63;;;;;;;;;;5050914;28;20292;-59
2022/04/27 01:23:05;;;;;;;29.73;14.90;;;;;;;;;;5050947;28;20307;-59
2022/04/27 01:25:51;;;;;;;32.87;14.53;;;;;;;;;;5050277;28;20283;-60
2022/04/27 01:28:21;;;;;;;27.23;14.07;;;;;;;;;;5049964;28;20349;-60
2022/04/27 01:30:48;;;;;;;23.03;13.00;;;;;;;;;;5049982;28;20288;-60
2022/04/27 01:33:14;;;;;;;25.70;12.70;;;;;;;;;;5049750;28;20642;-60
2022/04/27 01:35:40;;;;;;;21.60;13.67;;;;;;;;;;5055404;28;20391;-60
2022/04/27 01:38:07;;;;;;;29.83;14.47;;;;;;;;;;5050382;28;20289;-60
2022/04/27 01:40:33;;;;;;;29.17;12.87;;;;;;;;;;5056269;28;21070;-60
2022/04/27 01:42:59;;;;;;;40.07;16.30;;;;;;;;;;5069793;28;20279;-59
2022/04/27 01:45:26;;;;;;;29.23;14.73;;;;;;;;;;5069804;28;20286;-60
2022/04/27 01:47:53;;;;;;;31.33;15.63;;;;;;;;;;5068927;28;20325;-60
2022/04/27 01:50:20;;;;;;;37.07;15.23;;;;;;;;;;5069578;28;20655;-59
2022/04/27 01:55:31;;;;;;;28.63;13.67;;;;;;;;;;5068104;28;20402;-59
2022/04/27 01:57:58;;;;;;;31.83;14.40;;;;;;;;;;5049905;28;20390;-59
2022/04/27 02:00:24;;;;;;;32.13;13.40;;;;;;;;;;5062666;28;20294;-60
2022/04/27 02:02:50;;;;;;;25.50;12.30;;;;;;;;;;5069432;28;20286;-60
2022/04/27 02:05:16;;;;;;;20.90;13.10;;;;;;;;;;5066379;28;20299;-60
2022/04/27 02:07:46;;;;;;;25.60;11.63;;;;;;;;;;5049224;28;20280;-59
2022/04/27 02:10:12;;;;;;;34.93;14.23;;;;;;;;;;5048814;28;20302;-59
2022/04/27 02:12:38;;;;;;;26.73;13.67;;;;;;;;;;5048977;28;20299;-60
2022/04/27 02:15:04;;;;;;;29.20;13.27;;;;;;;;;;5049101;28;20303;-60
2022/04/27 02:17:30;;;;;;;22.87;12.70;;;;;;;;;;5048592;28;20048;-59
2022/04/27 02:19:56;;;;;;;25.03;13.43;;;;;;;;;;5049781;28;20287;-60
2022/04/27 02:22:23;;;;;;;24.97;12.50;;;;;;;;;;5049076;28;20275;-60
2022/04/27 02:24:49;;;;;;;25.27;12.63;;;;;;;;;;5046932;28;20310;-60
2022/04/27 02:27:15;;;;;;;36.77;14.43;;;;;;;;;;5048977;28;20283;-60
2022/04/27 02:29:42;;;;;;;26.17;14.23;;;;;;;;;;5049150;28;20287;-61
2022/04/27 02:32:09;;;;;;;26.67;13.80;;;;;;;;;;5049382;28;20828;-60
2022/04/27 02:34:35;;;;;;;31.57;15.03;;;;;;;;;;5048774;28;21193;-60
2022/04/27 02:37:01;;;;;;;32.37;16.53;;;;;;;;;;5064496;28;20299;-60
2022/04/27 02:39:27;;;;;;;32.00;17.27;;;;;;;;;;5068699;28;20294;-60
2022/04/27 02:41:53;;;;;;;33.27;16.47;;;;;;;;;;5068963;28;20278;-60
2022/04/27 02:44:19;;;;;;;36.77;17.00;;;;;;;;;;5069190;28;20289;-60
2022/04/27 02:46:45;;;;;;;37.87;18.47;;;;;;;;;;5068740;28;20368;-60
2022/04/27 02:51:56;;;;;;;34.93;17.57;;;;;;;;;;5049263;28;20059;-60
2022/04/27 02:54:22;;;;;;;38.63;17.50;;;;;;;;;;5048585;28;20310;-60
2022/04/27 02:56:49;;;;;;;32.77;15.00;;;;;;;;;;5049673;28;20060;-60
2022/04/27 02:59:15;;;;;;;30.47;15.80;;;;;;;;;;5048753;28;20048;-60
2022/04/27 03:01:42;;;;;;;42.57;19.07;;;;;;;;;;5048945;28;20291;-60
2022/04/27 03:04:08;;;;;;;37.40;17.33;;;;;;;;;;5067011;28;20738;-60
2022/04/27 03:06:35;;;;;;;28.73;15.30;;;;;;;;;;5066152;28;20106;-60
2022/04/27 03:09:01;;;;;;;31.23;16.87;;;;;;;;;;5068881;28;20348;-60
2022/04/27 03:11:27;;;;;;;26.03;14.87;;;;;;;;;;5068616;28;20048;-60
2022/04/27 03:13:53;;;;;;;40.30;16.80;;;;;;;;;;5068325;28;20159;-60
2022/04/27 03:16:19;;;;;;;39.47;17.23;;;;;;;;;;5072733;28;20055;-60
2022/04/27 03:18:46;;;;;;;32.93;16.57;;;;;;;;;;5054885;28;20056;-60
2022/04/27 03:21:12;;;;;;;31.27;15.33;;;;;;;;;;5065203;28;20050;-60
2022/04/27 03:23:38;;;;;;;25.70;15.27;;;;;;;;;;5064925;28;20048;-60
2022/04/27 03:26:05;;;;;;;27.10;14.30;;;;;;;;;;5057317;28;20036;-60
2022/04/27 03:28:31;;;;;;;24.60;13.70;;;;;;;;;;5071826;28;20414;-60
2022/04/27 03:30:57;;;;;;;28.70;15.90;;;;;;;;;;5052693;28;20068;-60
2022/04/27 03:33:23;;;;;;;30.03;15.57;;;;;;;;;;5067831;28;20413;-60
2022/04/27 03:35:49;;;;;;;30.63;15.37;;;;;;;;;;5063694;28;20574;-60
2022/04/27 03:38:15;;;;;;;30.97;14.90;;;;;;;;;;5055626;28;20056;-60
2022/04/27 03:40:41;;;;;;;28.93;15.33;;;;;;;;;;5070808;28;20131;-60
2022/04/27 03:43:09;;;;;;;28.60;14.70;;;;;;;;;;5052137;28;20048;-60
2022/04/27 03:45:35;;;;;;;36.10;15.83;;;;;;;;;;5068945;28;20105;-60
2022/04/27 03:48:01;;;;;;;36.10;16.37;;;;;;;;;;5072161;28;20041;-61
2022/04/27 03:50:28;;;;;;;28.30;16.67;;;;;;;;;;5071619;28;20587;-60
2022/04/27 03:52:54;;;;;;;28.17;15.03;;;;;;;;;;5071610;28;20051;-60
2022/04/27 03:55:20;;;;;;;37.83;16.27;;;;;;;;;;5071507;28;20468;-60
2022/04/27 03:57:46;;;;;;;32.53;16.80;;;;;;;;;;5069798;28;20052;-60
2022/04/27 04:00:12;;;;;;;30.50;16.53;;;;;;;;;;5059518;28;20578;-60
2022/04/27 04:02:38;;;;;;;31.73;16.33;;;;;;;;;;5051746;28;20046;-61
2022/04/27 04:05:05;;;;;;;25.67;14.90;;;;;;;;;;5056257;28;20047;-61
2022/04/27 04:07:32;;;;;;;33.40;16.13;;;;;;;;;;5072264;28;20036;-61
2022/04/27 04:09:58;;;;;;;32.33;15.53;;;;;;;;;;5071475;28;20127;-60
2022/04/27 04:12:24;;;;;;;24.60;14.27;;;;;;;;;;5071436;28;20051;-60
2022/04/27 04:14:50;;;;;;;31.80;15.80;;;;;;;;;;5069671;28;20043;-60
2022/04/27 04:17:17;;;;;;;25.47;14.17;;;;;;;;;;5071157;28;20044;-60
2022/04/27 04:19:43;;;;;;;24.70;15.30;;;;;;;;;;5071173;28;20052;-61
2022/04/27 04:22:09;;;;;;;39.07;17.20;;;;;;;;;;5052183;28;20156;-61
2022/04/27 04:24:35;;;;;;;34.73;15.97;;;;;;;;;;5051934;28;20098;-61
2022/04/27 04:29:46;;;;;;;28.63;15.50;;;;;;;;;;5070684;28;20052;-61
2022/04/27 04:32:12;;;;;;;27.63;14.83;;;;;;;;;;5071036;28;20049;-61
2022/04/27 04:34:38;;;;;;;28.83;14.83;;;;;;;;;;5057467;28;20048;-60
2022/04/27 04:37:05;;;;;;;35.00;17.53;;;;;;;;;;5063946;28;20052;-61
2022/04/27 04:39:31;;;;;;;33.77;15.57;;;;;;;;;;5053824;28;20052;-60
2022/04/27 04:41:57;;;;;;;29.33;16.23;;;;;;;;;;5050992;28;20189;-61
2022/04/27 04:44:23;;;;;;;29.30;14.87;;;;;;;;;;5050749;28;20565;-61
2022/04/27 04:46:49;;;;;;;22.97;14.67;;;;;;;;;;5050819;28;20048;-61
2022/04/27 04:49:15;;;;;;;39.43;17.03;;;;;;;;;;5050652;28;20041;-61
2022/04/27 04:51:41;;;;;;;32.27;16.07;;;;;;;;;;5050398;28;20128;-61
2022/04/27 04:54:07;;;;;;;32.30;17.13;;;;;;;;;;5050526;28;20063;-61
2022/04/27 04:56:33;;;;;;;29.20;16.43;;;;;;;;;;5054254;28;20045;-61
2022/04/27 04:58:59;;;;;;;28.57;17.83;;;;;;;;;;5070908;28;20040;-61
2022/04/27 05:01:25;;;;;;;30.03;18.77;;;;;;;;;;5057135;28;20422;-60
2022/04/27 05:03:51;;;;;;;28.73;16.80;;;;;;;;;;5050567;28;20506;-61
2022/04/27 05:06:17;;;;;;;29.30;17.57;;;;;;;;;;5063357;28;20546;-61
2022/04/27 05:08:43;;;;;;;29.53;18.00;;;;;;;;;;5070439;28;20072;-61
2022/04/27 05:11:09;;;;;;;33.00;17.17;;;;;;;;;;5069554;28;20057;-61
2022/04/27 05:13:38;;;;;;;31.10;17.17;;;;;;;;;;5070372;28;20056;-61
2022/04/27 05:16:05;;;;;;;32.87;19.03;;;;;;;;;;5070380;28;20174;-61
2022/04/27 05:18:31;;;;;;;31.47;18.50;;;;;;;;;;5069779;28;20451;-61
2022/04/27 05:20:56;;;;;;;24.87;18.30;;;;;;;;;;5070172;28;20403;-61
2022/04/27 05:23:22;;;;;;;26.47;16.33;;;;;;;;;;5061349;28;20048;-61
2022/04/27 05:25:48;;;;;;;24.00;16.97;;;;;;;;;;5050181;28;20052;-61
2022/04/27 05:28:15;;;;;;;29.77;16.63;;;;;;;;;;5050107;28;20473;-61
2022/04/27 05:33:25;;;;;;;28.60;16.17;;;;;;;;;;5051494;28;20128;-61
2022/04/27 05:35:51;;;;;;;30.67;16.97;;;;;;;;;;5049913;28;20143;-61
2022/04/27 05:38:17;;;;;;;26.30;15.93;;;;;;;;;;5049129;28;20418;-62
2022/04/27 05:40:43;;;;;;;24.53;15.70;;;;;;;;;;5049665;28;20041;-61
2022/04/27 05:43:10;;;;;;;28.43;16.17;;;;;;;;;;5049906;28;20040;-62
2022/04/27 05:45:36;;;;;;;22.83;16.00;;;;;;;;;;5049671;28;20113;-61
2022/04/27 05:48:02;;;;;;;26.60;16.90;;;;;;;;;;5058390;28;20051;-61
2022/04/27 05:50:28;;;;;;;25.77;16.23;;;;;;;;;;5069452;28;20052;-61
2022/04/27 05:52:59;;;;;;;27.93;17.43;;;;;;;;;;5069899;28;20139;-61
2022/04/27 05:55:26;;;;;;;25.07;15.53;;;;;;;;;;5066750;28;20132;-61
2022/04/27 05:57:52;;;;;;;24.37;14.83;;;;;;;;;;5067861;28;20090;-61
2022/04/27 06:00:19;;;;;;;28.17;14.83;;;;;;;;;;5050786;28;20047;-61
2022/04/27 06:02:45;;;;;;;19.80;13.10;;;;;;;;;;5054970;28;20045;-61
2022/04/27 06:05:12;;;;;;;21.70;13.57;;;;;;;;;;5069429;28;20052;-61
2022/04/27 06:07:38;;;;;;;21.07;14.00;;;;;;;;;;5069238;28;20513;-61
2022/04/27 06:10:08;;;;;;;19.50;13.47;;;;;;;;;;5069095;28;20040;-61
2022/04/27 06:12:44;;;;;;;22.03;13.37;;;;;;;;;;5069322;28;20420;-61
2022/04/27 06:15:13;;;;;;;18.63;11.87;;;;;;;;;;5069559;28;21090;-61
2022/04/27 06:17:39;;;;;;;15.10;11.23;;;;;;;;;;5069173;28;20579;-60
2022/04/27 06:20:06;;;;;;;18.40;11.97;;;;;;;;;;5069363;28;20131;-61
2022/04/27 06:22:32;;;;;;;16.07;10.83;;;;;;;;;;5068693;28;20181;-61
2022/04/27 06:24:58;;;;;;;14.20;10.20;;;;;;;;;;5069051;28;20114;-61
2022/04/27 06:27:24;;;;;;;25.03;10.10;;;;;;;;;;5051575;28;20466;-61
2022/04/27 06:29:50;;;;;;;12.93;9.27;;;;;;;;;;5048429;28;20103;-61
2022/04/27 06:32:16;;;;;;;14.40;10.07;;;;;;;;;;5048939;28;20202;-61
2022/04/27 06:34:42;;;;;;;13.53;9.53;;;;;;;;;;5048029;28;20433;-61
2022/04/27 06:37:08;;;;;;;12.97;8.83;;;;;;;;;;5048925;28;20503;-61
2022/04/27 06:39:34;;;;;;;13.33;9.87;;;;;;;;;;5048653;28;20128;-61
2022/04/27 06:42:00;;;;;;;10.93;7.93;;;;;;;;;;5048905;28;20290;-61
2022/04/27 06:44:26;;;;;;;15.57;8.93;;;;;;;;;;5048440;28;20135;-61
2022/04/27 06:46:52;;;;;;;10.33;8.10;;;;;;;;;;5048228;28;20044;-61
2022/04/27 06:49:18;;;;;;;14.57;8.37;;;;;;;;;;5046823;28;20052;-61
2022/04/27 06:51:44;;;;;;;14.07;9.27;;;;;;;;;;5048505;28;20529;-61
2022/04/27 06:54:10;;;;;;;9.50;6.97;;;;;;;;;;5048652;28;20529;-61
2022/04/27 06:56:36;;;;;;;12.83;6.33;;;;;;;;;;5057138;28;20045;-61
2022/04/27 06:59:02;;;;;;;8.77;6.20;;;;;;;;;;5068240;28;20036;-60
2022/04/27 07:01:28;;;;;;;12.20;5.63;;;;;;;;;;5068348;28;20084;-60
2022/04/27 07:03:55;;;;;;;10.10;5.33;;;;;;;;;;5068577;28;20364;-60
2022/04/27 07:06:22;;;;;;;9.83;4.93;;;;;;;;;;5067101;28;20059;-60
2022/04/27 07:08:49;;;;;;;10.70;5.83;;;;;;;;;;5068185;28;20044;-61
2022/04/27 07:11:15;;;;;;;7.90;4.63;;;;;;;;;;5066136;28;20048;-60
2022/04/27 07:13:41;;;;;;;7.97;4.87;;;;;;;;;;5048122;28;20426;-60
2022/04/27 07:16:07;;;;;;;6.17;5.20;;;;;;;;;;5048343;28;20049;-60
2022/04/27 07:18:33;;;;;;;5.97;3.80;;;;;;;;;;5047978;28;20044;-61
2022/04/27 07:21:00;;;;;;;7.63;4.87;;;;;;;;;;5048654;28;20131;-61
2022/04/27 07:23:27;;;;;;;8.43;5.10;;;;;;;;;;5048565;28;20481;-60
2022/04/27 07:25:53;;;;;;;9.83;5.70;;;;;;;;;;5047116;28;20527;-60
2022/04/27 07:28:19;;;;;;;9.57;5.70;;;;;;;;;;5047897;28;20129;-61
2022/04/27 07:30:45;;;;;;;8.30;4.97;;;;;;;;;;5048276;28;20053;-60
2022/04/27 07:33:11;;;;;;;7.83;4.50;;;;;;;;;;5047912;28;20580;-61
2022/04/27 07:35:37;;;;;;;10.20;4.50;;;;;;;;;;5048370;28;20044;-60
2022/04/27 07:38:04;;;;;;;7.33;4.17;;;;;;;;;;5048399;28;20045;-61
2022/04/27 07:40:30;;;;;;;8.57;4.83;;;;;;;;;;5047782;28;20526;-61
2022/04/27 07:42:56;;;;;;;8.40;3.70;;;;;;;;;;5048421;28;20045;-60
2022/04/27 07:45:22;;;;;;;6.37;3.10;;;;;;;;;;5048045;28;20896;-61
2022/04/27 07:47:48;;;;;;;6.47;3.50;;;;;;;;;;5048257;28;20041;-62
2022/04/27 07:50:15;;;;;;;7.47;3.23;;;;;;;;;;5047679;28;20045;-61
2022/04/27 07:52:41;;;;;;;6.43;3.00;;;;;;;;;;5048199;28;20449;-60
2022/04/27 07:55:07;;;;;;;7.23;2.60;;;;;;;;;;5053356;28;20567;-61
2022/04/27 07:57:34;;;;;;;4.70;1.97;;;;;;;;;;5068329;28;20052;-61
2022/04/27 08:00:00;;;;;;;5.30;2.50;;;;;;;;;;5054926;28;20131;-61
2022/04/27 08:02:27;;;;;;;5.53;2.40;;;;;;;;;;5062543;28;20433;-61
2022/04/27 08:04:53;;;;;;;5.67;2.70;;;;;;;;;;5076719;28;20036;-61
2022/04/27 08:07:19;;;;;;;4.70;2.00;;;;;;;;;;5068321;28;20128;-61
2022/04/27 08:09:45;;;;;;;4.53;1.63;;;;;;;;;;5062115;28;20100;-61
2022/04/27 08:12:11;;;;;;;8.17;1.80;;;;;;;;;;5054760;28;20128;-61
2022/04/27 08:14:37;;;;;;;3.00;1.50;;;;;;;;;;5056766;28;20094;-60
2022/04/27 08:17:03;;;;;;;5.03;1.57;;;;;;;;;;5058882;28;20086;-60
2022/04/27 08:19:29;;;;;;;4.40;1.57;;;;;;;;;;5060070;28;20037;-61
2022/04/27 08:21:56;;;;;;;2.90;1.37;;;;;;;;;;5061304;28;20521;-61
2022/04/27 08:24:22;;;;;;;2.67;1.10;;;;;;;;;;5063214;28;20045;-61
2022/04/27 08:26:48;;;;;;;3.10;1.20;;;;;;;;;;5061680;28;20483;-60
2022/04/27 08:29:14;;;;;;;5.83;1.27;;;;;;;;;;5056463;28;20696;-61
2022/04/27 08:31:41;;;;;;;5.77;1.33;;;;;;;;;;5051523;28;20056;-61
2022/04/27 08:34:07;;;;;;;8.47;1.27;;;;;;;;;;5070126;28;20041;-61
2022/04/27 08:36:33;;;;;;;5.37;1.40;;;;;;;;;;5067767;28;20055;-61
2022/04/27 08:39:00;;;;;;;4.07;1.17;;;;;;;;;;5059899;28;20214;-61
2022/04/27 08:41:28;;;;;;;3.10;1.00;;;;;;;;;;5055334;28;20087;-61
2022/04/27 08:43:54;;;;;;;4.90;1.43;;;;;;;;;;5070765;28;20052;-61
2022/04/27 08:46:20;;;;;;;4.23;1.27;;;;;;;;;;5070556;28;20135;-61
2022/04/27 08:48:47;;;;;;;6.30;1.77;;;;;;;;;;5070997;28;20417;-61
2022/04/27 08:51:13;;;;;;;4.27;1.40;;;;;;;;;;5070668;28;20501;-61
2022/04/27 08:53:39;;;;;;;8.17;1.70;;;;;;;;;;5069477;28;20085;-61
2022/04/27 08:56:05;;;;;;;2.70;1.40;;;;;;;;;;5057901;28;20422;-61
2022/04/27 08:58:32;;;;;;;6.47;1.40;;;;;;;;;;5050610;28;20195;-61
2022/04/27 09:00:59;;;;;;;5.90;1.33;;;;;;;;;;5049789;28;20742;-61
2022/04/27 09:03:25;;;;;;;4.77;1.30;;;;;;;;;;5050647;28;20064;-61
2022/04/27 09:06:12;;;;;;;8.33;1.70;;;;;;;;;;5050418;28;20045;-61
2022/04/27 09:08:41;;;;;;;5.93;1.20;;;;;;;;;;5050009;28;20045;-61
2022/04/27 09:11:13;;;;;;;4.37;1.10;;;;;;;;;;5049014;28;20151;-61
2022/04/27 09:13:40;;;;;;;5.93;1.30;;;;;;;;;;5049269;28;20049;-61
2022/04/27 09:16:07;;;;;;;3.90;1.20;;;;;;;;;;5050383;28;20478;-61
2022/04/27 09:21:52;;;;;;;5.87;1.40;;;;;;;;;;5051032;28;20045;-61
2022/04/27 09:24:19;;;;;;;3.27;1.40;;;;;;;;;;5050084;28;20071;-61
2022/04/27 09:26:45;;;;;;;6.27;1.27;;;;;;;;;;5049821;28;20047;-61
2022/04/27 09:29:24;;;;;;;6.60;1.20;;;;;;;;;;5049603;28;20092;-61
2022/04/27 09:31:56;;;;;;;9.63;1.40;;;;;;;;;;5049798;28;20144;-60
2022/04/27 09:34:28;;;;;;;6.97;1.33;;;;;;;;;;5049747;28;20098;-61
2022/04/27 09:36:54;;;;;;;8.53;2.03;;;;;;;;;;5049649;28;20455;-61
2022/04/27 09:39:27;;;;;;;3.70;1.27;;;;;;;;;;5049833;28;20084;-61
2022/04/27 09:41:53;;;;;;;6.13;1.63;;;;;;;;;;5049353;28;20056;-61
2022/04/27 09:44:28;;;;;;;6.00;1.43;;;;;;;;;;5049498;28;20045;-61
2022/04/27 09:46:54;;;;;;;5.43;1.67;;;;;;;;;;5049750;28;20411;-61
2022/04/27 09:49:21;;;;;;;3.93;1.20;;;;;;;;;;5049493;28;20044;-61
2022/04/27 09:51:47;;;;;;;6.03;1.50;;;;;;;;;;5048884;28;20041;-61
2022/04/27 09:54:17;;;;;;;5.67;1.53;;;;;;;;;;5049680;28;20075;-61
2022/04/27 09:56:43;;;;;;;4.90;1.40;;;;;;;;;;5048829;28;20063;-61
2022/04/27 09:59:10;;;;;;;5.10;1.20;;;;;;;;;;5049512;28;20037;-61
2022/04/27 10:01:37;;;;;;;6.17;1.50;;;;;;;;;;5048737;28;20044;-61
2022/04/27 10:04:04;;;;;;;4.70;2.33;;;;;;;;;;5049476;28;20045;-61
2022/04/27 10:06:34;;;;;;;4.47;1.30;;;;;;;;;;5049266;28;20045;-60
2022/04/27 10:09:02;;;;;;;6.03;1.20;;;;;;;;;;5049271;28;20363;-61
2022/04/27 10:11:29;;;;;;;4.23;1.20;;;;;;;;;;5049126;28;20041;-61
2022/04/27 10:13:55;;;;;;;5.80;1.50;;;;;;;;;;5049244;28;20048;-61
2022/04/27 10:16:22;;;;;;;4.37;1.50;;;;;;;;;;5055726;28;20509;-61
2022/04/27 10:18:48;;;;;;;7.43;1.60;;;;;;;;;;5069171;28;20433;-61
2022/04/27 10:21:14;;;;;;;6.13;1.50;;;;;;;;;;5069212;28;20116;-61
2022/04/27 10:23:44;;;;;;;5.03;1.07;;;;;;;;;;5068785;28;20045;-61
2022/04/27 10:26:11;;;;;;;4.23;1.33;;;;;;;;;;5068884;28;20131;-61
2022/04/27 10:28:40;;;;;;;4.43;1.60;;;;;;;;;;5068749;28;20110;-61
2022/04/27 10:31:08;;;;;;;4.53;1.63;;;;;;;;;;5068714;28;20068;-61
2022/04/27 10:33:41;;;;;;;5.80;1.63;;;;;;;;;;5068674;28;20083;-61
2022/04/27 10:36:25;;;;;;;5.15;1.55;;;;;;;;;;5068307;28;20045;-61
2022/04/27 10:39:09;;;;;;;4.43;1.43;;;;;;;;;;5068528;28;20494;-61
2022/04/27 10:41:36;;;;;;;4.80;1.50;;;;;;;;;;5068498;28;20415;-61
2022/04/27 10:44:02;;;;;;;3.40;1.33;;;;;;;;;;5068461;28;20056;-61
2022/04/27 10:46:38;;;;;;;5.17;1.43;;;;;;;;;;5060823;28;20053;-61
2022/04/27 10:49:24;;;;;;;3.20;1.30;;;;;;;;;;5061252;28;20114;-61
2022/04/27 10:52:03;;;;;;;7.60;1.53;;;;;;;;;;5068608;28;20056;-61
2022/04/27 10:54:33;;;;;;;7.37;2.17;;;;;;;;;;5068718;28;20049;-61
2022/04/27 10:57:18;;;;;;;5.43;1.47;;;;;;;;;;5068212;28;20051;-61
2022/04/27 10:59:45;;;;;;;6.20;1.43;;;;;;;;;;5068091;28;20063;-61
2022/04/27 11:02:29;;;;;;;9.80;1.60;;;;;;;;;;5068311;28;20075;-61
2022/04/27 11:04:55;;;;;;;6.50;1.57;;;;;;;;;;5068708;28;20095;-61
2022/04/27 11:07:26;;;;;;;4.37;1.40;;;;;;;;;;5068497;28;20084;-61
2022/04/27 11:10:01;;;;;;;4.23;1.40;;;;;;;;;;5068347;28;20072;-61
2022/04/27 11:12:28;;;;;;;3.40;1.20;;;;;;;;;;5068168;28;20059;-61
2022/04/27 11:15:00;;;;;;;4.73;1.37;;;;;;;;;;5068396;28;20147;-61
2022/04/27 11:17:30;;;;;;;7.88;1.55;;;;;;;;;;5053232;28;20041;-61
2022/04/27 11:19:56;;;;;;;3.93;1.60;;;;;;;;;;5048408;28;20041;-61
2022/04/27 11:22:22;;;;;;;5.20;1.40;;;;;;;;;;5048181;28;20521;-61
2022/04/27 11:24:49;;;;;;;7.13;2.53;;;;;;;;;;5048354;28;20057;-61
2022/04/27 11:27:26;;;;;;;5.97;1.70;;;;;;;;;;5048173;28;20510;-61
2022/04/27 11:29:52;;;;;;;3.90;1.43;;;;;;;;;;5046235;28;20053;-61
2022/04/27 11:32:18;;;;;;;4.60;1.60;;;;;;;;;;5048048;28;20049;-61
2022/04/27 11:34:48;;;;;;;5.73;1.60;;;;;;;;;;5047959;28;20216;-61
2022/04/27 11:37:15;;;;;;;4.60;2.17;;;;;;;;;;5052098;28;20139;-61
2022/04/27 11:39:41;;;;;;;4.10;1.83;;;;;;;;;;5051741;28;20064;-61
2022/04/27 11:42:09;;;;;;;5.47;1.50;;;;;;;;;;5051752;28;20056;-61
2022/04/27 11:44:36;;;;;;;5.30;1.47;;;;;;;;;;5051796;28;20048;-61
2022/04/27 11:47:03;;;;;;;6.00;1.67;;;;;;;;;;5052071;28;20049;-61
2022/04/27 11:49:29;;;;;;;5.07;1.40;;;;;;;;;;5055942;28;20036;-61
2022/04/27 11:51:55;;;;;;;6.20;1.50;;;;;;;;;;5071637;28;20130;-61
2022/04/27 11:54:28;;;;;;;4.73;1.70;;;;;;;;;;5070273;28;20559;-61
2022/04/27 11:56:56;;;;;;;5.87;1.80;;;;;;;;;;5071283;28;20556;-60
2022/04/27 11:59:22;;;;;;;5.43;2.03;;;;;;;;;;5070559;28;20087;-60
2022/04/27 12:01:52;;;;;;;5.90;1.80;;;;;;;;;;5070757;28;20751;-61
2022/04/27 12:04:18;;;;;;;5.87;2.33;;;;;;;;;;5069121;28;20049;-61
2022/04/27 12:06:47;;;;;;;3.63;1.47;;;;;;;;;;5071567;28;20712;-62
2022/04/27 12:09:17;;;;;;;5.90;1.73;;;;;;;;;;5071713;28;20047;-61
2022/04/27 12:11:44;;;;;;;5.47;1.60;;;;;;;;;;5071601;28;20111;-61
2022/04/27 12:14:10;;;;;;;4.47;1.90;;;;;;;;;;5071552;28;20059;-61
2022/04/27 12:16:36;;;;;;;6.83;1.67;;;;;;;;;;5071501;28;20155;-61
2022/04/27 12:19:02;;;;;;;6.43;1.60;;;;;;;;;;5071041;28;20128;-61
2022/04/27 12:21:29;;;;;;;9.00;2.10;;;;;;;;;;5071507;28;20075;-61
2022/04/27 12:23:56;;;;;;;6.90;1.40;;;;;;;;;;5071344;28;20079;-61
2022/04/27 12:26:22;;;;;;;5.03;1.73;;;;;;;;;;5071403;28;20503;-61
2022/04/27 12:28:49;;;;;;;7.53;2.27;;;;;;;;;;5070719;28;20056;-61
2022/04/27 12:31:16;;;;;;;5.87;1.83;;;;;;;;;;5070857;28;20135;-61
2022/04/27 12:33:43;;;;;;;5.10;2.10;;;;;;;;;;5070986;28;20036;-61
2022/04/27 12:39:02;;;;;;;3.63;1.50;;;;;;;;;;5051054;28;20045;-61
2022/04/27 12:41:41;;;;;;;6.33;1.63;;;;;;;;;;5051227;28;20699;-61
2022/04/27 12:44:13;;;;;;;7.07;1.90;;;;;;;;;;5050638;28;20049;-61
2022/04/27 12:46:54;;;;;;;7.90;2.40;;;;;;;;;;5049877;28;20048;-61
2022/04/27 12:49:27;;;;;;;6.70;1.90;;;;;;;;;;5050506;28;20059;-61
2022/04/27 12:51:54;;;;;;;5.17;2.00;;;;;;;;;;5050528;28;20102;-61
2022/04/27 12:54:32;;;;;;;7.67;2.33;;;;;;;;;;5050629;28;20140;-61
2022/04/27 12:57:01;;;;;;;5.37;1.90;;;;;;;;;;5050036;28;20454;-61
2022/04/27 12:59:27;;;;;;;6.43;2.80;;;;;;;;;;5050689;28;20084;-61
2022/04/27 13:02:02;;;;;;;8.73;2.80;;;;;;;;;;5049218;28;20072;-61
2022/04/27 13:04:28;;;;;;;7.20;3.10;;;;;;;;;;5052950;28;20774;-62
2022/04/27 13:06:54;;;;;;;9.40;2.93;;;;;;;;;;5070009;28;20140;-61
2022/04/27 13:12:07;;;;;;;8.63;2.93;;;;;;;;;;5070401;28;20490;-61
2022/04/27 13:14:33;;;;;;;7.77;2.60;;;;;;;;;;5070746;28;20045;-61
2022/04/27 13:16:59;;;;;;;9.33;3.37;;;;;;;;;;5057439;28;20048;-61
2022/04/27 13:19:26;;;;;;;6.50;2.77;;;;;;;;;;5050254;28;20041;-61
2022/04/27 13:21:52;;;;;;;6.73;2.57;;;;;;;;;;5050523;28;20049;-61
2022/04/27 13:24:18;;;;;;;6.27;3.20;;;;;;;;;;5050225;28;20136;-60
2022/04/27 13:26:44;;;;;;;9.67;3.50;;;;;;;;;;5049621;28;20477;-61
2022/04/27 13:29:10;;;;;;;7.37;3.03;;;;;;;;;;5050331;28;20049;-61
2022/04/27 13:31:37;;;;;;;9.47;3.47;;;;;;;;;;5050072;28;20559;-61
2022/04/27 13:34:03;;;;;;;8.30;3.27;;;;;;;;;;5050411;28;20152;-60
2022/04/27 13:36:29;;;;;;;12.27;3.20;;;;;;;;;;5069133;28;20573;-61
2022/04/27 13:38:55;;;;;;;9.53;4.17;;;;;;;;;;5069758;28;20055;-61
2022/04/27 13:41:21;;;;;;;7.03;3.27;;;;;;;;;;5069955;28;20066;-61
2022/04/27 13:43:47;;;;;;;11.03;3.23;;;;;;;;;;5069687;28;20040;-61
2022/04/27 13:46:13;;;;;;;7.07;3.23;;;;;;;;;;5069676;28;20060;-61
2022/04/27 13:48:41;;;;;;;7.03;3.00;;;;;;;;;;5069586;28;20079;-61
2022/04/27 13:51:07;;;;;;;8.67;2.23;;;;;;;;;;5069386;28;20041;-61
2022/04/27 13:53:33;;;;;;;8.37;2.67;;;;;;;;;;5069430;28;20588;-60
2022/04/27 13:55:59;;;;;;;8.20;2.47;;;;;;;;;;5068065;28;20088;-61
2022/04/27 13:58:27;;;;;;;6.73;2.63;;;;;;;;;;5069209;28;20113;-61
2022/04/27 14:00:53;;;;;;;6.90;2.67;;;;;;;;;;5068988;28;20421;-60
2022/04/27 14:03:19;;;;;;;12.63;2.87;;;;;;;;;;5069695;28;20106;-61
2022/04/27 14:05:46;;;;;;;7.07;2.87;;;;;;;;;;5058278;28;20048;-61
2022/04/27 14:08:12;;;;;;;7.47;2.57;;;;;;;;;;5049699;28;20091;-60
2022/04/27 14:10:38;;;;;;;11.93;2.47;;;;;;;;;;5049010;28;20124;-61
2022/04/27 14:13:13;;;;;;;6.47;2.90;;;;;;;;;;5049174;28;20152;-60
2022/04/27 14:15:39;;;;;;;12.20;3.90;;;;;;;;;;5049000;28;20052;-60
2022/04/27 14:18:15;;;;;;;10.00;2.53;;;;;;;;;;5049392;28;20045;-61
2022/04/27 14:20:43;;;;;;;7.30;2.30;;;;;;;;;;5049255;28;20083;-60
2022/04/27 14:23:09;;;;;;;7.50;2.60;;;;;;;;;;5049095;28;20049;-60
2022/04/27 14:25:36;;;;;;;9.33;2.53;;;;;;;;;;5049114;28;20044;-60
2022/04/27 14:28:02;;;;;;;8.93;2.50;;;;;;;;;;5048541;28;20044;-60
2022/04/27 14:30:28;;;;;;;8.33;2.53;;;;;;;;;;5048895;28;20067;-61
2022/04/27 14:32:54;;;;;;;7.77;2.43;;;;;;;;;;5048763;28;20524;-60
2022/04/27 14:35:20;;;;;;;8.47;2.33;;;;;;;;;;5049275;28;20056;-60
2022/04/27 14:37:46;;;;;;;7.77;2.97;;;;;;;;;;5048603;28;20045;-60
2022/04/27 14:40:12;;;;;;;9.17;2.63;;;;;;;;;;5048488;28;20048;-61
2022/04/27 14:42:39;;;;;;;9.67;2.90;;;;;;;;;;5048705;28;20041;-60
2022/04/27 14:45:05;;;;;;;8.90;2.50;;;;;;;;;;5047505;28;20072;-61
2022/04/27 14:47:31;;;;;;;7.47;2.30;;;;;;;;;;5048571;28;20041;-61
2022/04/27 14:49:58;;;;;;;10.00;3.10;;;;;;;;;;5048760;28;20049;-60